sensor_id;sensor_type;location;lat;lon;timestamp;temperature;humidity
43089;DHT22;28709;52.030;5.652;2023-02-01T00:02:20;4.80;99.90
43089;DHT22;28709;52.030;5.652;2023-02-01T00:04:46;4.80;99.90
43089;DHT22;28709;52.030;5.652;2023-02-01T00:07:12;4.90;99.90
43089;DHT22;28709;52.030;5.652;2023-02-01T00:09:37;4.90;99.90
43089;DHT22;28709;52.030;5.652;2023-02-01T00:12:03;4.90;99.90
43089;DHT22;28709;52.030;5.652;2023-02-01T00:14:29;4.80;99.90
43089;DHT22;28709;52.030;5.652;2023-02-01T00:16:55;4.80;99.90
43089;DHT22;28709;52.030;5.652;2023-02-01T00:19:20;4.80;99.90
43089;DHT22;28709;52.030;5.652;2023-02-01T00:21:46;4.90;99.90
43089;DHT22;28709;52.030;5.652;2023-02-01T00:24:12;4.90;99.90
43089;DHT22;28709;52.030;5.652;2023-02-01T00:26:41;4.90;99.90
43089;DHT22;28709;52.030;5.652;2023-02-01T00:29:11;4.90;99.90
43089;DHT22;28709;52.030;5.652;2023-02-01T00:31:37;5.00;99.90
43089;DHT22;28709;52.030;5.652;2023-02-01T00:34:02;5.00;99.90
43089;DHT22;28709;52.030;5.652;2023-02-01T00:36:28;5.00;99.90
43089;DHT22;28709;52.030;5.652;2023-02-01T00:38:54;5.00;99.90
43089;DHT22;28709;52.030;5.652;2023-02-01T00:41:21;5.10;99.90
43089;DHT22;28709;52.030;5.652;2023-02-01T00:43:47;5.10;99.90
43089;DHT22;28709;52.030;5.652;2023-02-01T00:46:15;5.10;99.90
43089;DHT22;28709;52.030;5.652;2023-02-01T00:48:42;5.20;99.90
43089;DHT22;28709;52.030;5.652;2023-02-01T00:51:15;5.20;99.90
43089;DHT22;28709;52.030;5.652;2023-02-01T00:53:41;5.30;99.90
43089;DHT22;28709;52.030;5.652;2023-02-01T00:56:07;5.30;99.90
43089;DHT22;28709;52.030;5.652;2023-02-01T00:58:33;5.30;99.90
43089;DHT22;28709;52.030;5.652;2023-02-01T01:03:38;5.30;99.90
43089;DHT22;28709;52.030;5.652;2023-02-01T01:06:31;5.30;99.90
43089;DHT22;28709;52.030;5.652;2023-02-01T01:09:00;5.30;99.90
43089;DHT22;28709;52.030;5.652;2023-02-01T01:11:28;5.40;99.90
43089;DHT22;28709;52.030;5.652;2023-02-01T01:13:55;5.40;99.90
43089;DHT22;28709;52.030;5.652;2023-02-01T01:16:23;5.50;99.90
43089;DHT22;28709;52.030;5.652;2023-02-01T01:18:49;5.50;99.90
43089;DHT22;28709;52.030;5.652;2023-02-01T01:21:16;5.50;99.90
43089;DHT22;28709;52.030;5.652;2023-02-01T01:23:43;5.50;99.90
43089;DHT22;28709;52.030;5.652;2023-02-01T01:26:11;5.50;99.90
43089;DHT22;28709;52.030;5.652;2023-02-01T01:28:38;5.50;99.90
43089;DHT22;28709;52.030;5.652;2023-02-01T01:31:03;5.60;99.90
43089;DHT22;28709;52.030;5.652;2023-02-01T01:33:29;5.60;99.90
43089;DHT22;28709;52.030;5.652;2023-02-01T01:35:55;5.60;99.90
43089;DHT22;28709;52.030;5.652;2023-02-01T01:38:21;5.50;99.90
43089;DHT22;28709;52.030;5.652;2023-02-01T01:40:47;5.50;99.90
43089;DHT22;28709;52.030;5.652;2023-02-01T01:43:17;5.50;99.90
43089;DHT22;28709;52.030;5.652;2023-02-01T01:45:45;5.40;99.90
43089;DHT22;28709;52.030;5.652;2023-02-01T01:48:20;5.40;99.90
43089;DHT22;28709;52.030;5.652;2023-02-01T01:50:57;5.30;99.90
43089;DHT22;28709;52.030;5.652;2023-02-01T01:53:27;5.30;99.90
43089;DHT22;28709;52.030;5.652;2023-02-01T01:55:54;5.30;99.90
43089;DHT22;28709;52.030;5.652;2023-02-01T01:58:24;5.30;99.90
43089;DHT22;28709;52.030;5.652;2023-02-01T02:00:51;5.30;99.90
43089;DHT22;28709;52.030;5.652;2023-02-01T02:03:40;5.30;99.90
43089;DHT22;28709;52.030;5.652;2023-02-01T02:06:32;5.30;99.90
43089;DHT22;28709;52.030;5.652;2023-02-01T02:08:56;5.40;99.90
43089;DHT22;28709;52.030;5.652;2023-02-01T02:11:22;5.30;99.90
43089;DHT22;28709;52.030;5.652;2023-02-01T02:13:52;5.40;99.90
43089;DHT22;28709;52.030;5.652;2023-02-01T02:19:22;5.40;99.90
43089;DHT22;28709;52.030;5.652;2023-02-01T02:30:59;5.50;99.90
43089;DHT22;28709;52.030;5.652;2023-02-01T02:33:43;5.50;99.90
43089;DHT22;28709;52.030;5.652;2023-02-01T02:39:05;5.60;99.90
43089;DHT22;28709;52.030;5.652;2023-02-01T02:48:25;5.70;99.90
43089;DHT22;28709;52.030;5.652;2023-02-01T02:50:54;5.70;99.90
43089;DHT22;28709;52.030;5.652;2023-02-01T02:54:05;5.80;99.90
43089;DHT22;28709;52.030;5.652;2023-02-01T02:56:53;5.80;99.90
43089;DHT22;28709;52.030;5.652;2023-02-01T02:59:40;5.90;99.90
43089;DHT22;28709;52.030;5.652;2023-02-01T03:02:26;5.90;99.90
43089;DHT22;28709;52.030;5.652;2023-02-01T03:05:11;5.90;99.90
43089;DHT22;28709;52.030;5.652;2023-02-01T03:13:04;6.10;99.90
43089;DHT22;28709;52.030;5.652;2023-02-01T03:18:14;6.20;99.90
43089;DHT22;28709;52.030;5.652;2023-02-01T03:20:44;6.20;99.90
43089;DHT22;28709;52.030;5.652;2023-02-01T03:23:13;6.10;99.90
43089;DHT22;28709;52.030;5.652;2023-02-01T03:25:40;6.20;99.90
43089;DHT22;28709;52.030;5.652;2023-02-01T03:28:08;6.20;99.90
43089;DHT22;28709;52.030;5.652;2023-02-01T03:30:41;6.20;99.90
43089;DHT22;28709;52.030;5.652;2023-02-01T03:33:12;6.30;99.90
43089;DHT22;28709;52.030;5.652;2023-02-01T03:38:55;6.30;99.90
43089;DHT22;28709;52.030;5.652;2023-02-01T03:41:49;6.30;99.90
43089;DHT22;28709;52.030;5.652;2023-02-01T03:44:17;6.30;99.90
43089;DHT22;28709;52.030;5.652;2023-02-01T03:46:59;6.30;99.90
43089;DHT22;28709;52.030;5.652;2023-02-01T03:49:35;6.20;99.90
43089;DHT22;28709;52.030;5.652;2023-02-01T03:52:02;6.20;99.90
43089;DHT22;28709;52.030;5.652;2023-02-01T03:54:29;6.20;99.90
43089;DHT22;28709;52.030;5.652;2023-02-01T03:56:59;6.20;99.90
43089;DHT22;28709;52.030;5.652;2023-02-01T03:59:26;6.20;99.90
43089;DHT22;28709;52.030;5.652;2023-02-01T04:01:51;6.20;99.90
43089;DHT22;28709;52.030;5.652;2023-02-01T04:04:18;6.20;99.90
43089;DHT22;28709;52.030;5.652;2023-02-01T04:06:48;6.20;99.90
43089;DHT22;28709;52.030;5.652;2023-02-01T04:09:14;6.20;99.90
43089;DHT22;28709;52.030;5.652;2023-02-01T04:11:39;6.20;99.90
43089;DHT22;28709;52.030;5.652;2023-02-01T04:14:05;6.30;99.90
43089;DHT22;28709;52.030;5.652;2023-02-01T04:16:31;6.30;99.90
43089;DHT22;28709;52.030;5.652;2023-02-01T04:18:57;6.30;99.90
43089;DHT22;28709;52.030;5.652;2023-02-01T04:21:27;6.30;99.90
43089;DHT22;28709;52.030;5.652;2023-02-01T04:23:54;6.30;99.90
43089;DHT22;28709;52.030;5.652;2023-02-01T04:26:20;6.30;99.90
43089;DHT22;28709;52.030;5.652;2023-02-01T04:28:46;6.40;99.90
43089;DHT22;28709;52.030;5.652;2023-02-01T04:31:16;6.40;99.90
43089;DHT22;28709;52.030;5.652;2023-02-01T04:33:43;6.40;99.90
43089;DHT22;28709;52.030;5.652;2023-02-01T04:36:09;6.50;99.90
43089;DHT22;28709;52.030;5.652;2023-02-01T04:38:35;6.60;99.90
43089;DHT22;28709;52.030;5.652;2023-02-01T04:41:00;6.60;99.90
43089;DHT22;28709;52.030;5.652;2023-02-01T04:43:26;6.60;99.90
43089;DHT22;28709;52.030;5.652;2023-02-01T04:45:53;6.60;99.90
43089;DHT22;28709;52.030;5.652;2023-02-01T04:48:19;6.60;99.90
43089;DHT22;28709;52.030;5.652;2023-02-01T04:50:46;6.70;99.90
43089;DHT22;28709;52.030;5.652;2023-02-01T04:53:17;6.80;99.90
43089;DHT22;28709;52.030;5.652;2023-02-01T04:55:43;6.80;99.90
43089;DHT22;28709;52.030;5.652;2023-02-01T04:58:09;6.80;99.90
43089;DHT22;28709;52.030;5.652;2023-02-01T05:00:35;6.80;99.90
43089;DHT22;28709;52.030;5.652;2023-02-01T05:03:01;6.80;99.90
43089;DHT22;28709;52.030;5.652;2023-02-01T05:05:27;6.80;99.90
43089;DHT22;28709;52.030;5.652;2023-02-01T05:07:53;6.80;99.90
43089;DHT22;28709;52.030;5.652;2023-02-01T05:10:19;6.70;99.90
43089;DHT22;28709;52.030;5.652;2023-02-01T05:12:45;6.70;99.90
43089;DHT22;28709;52.030;5.652;2023-02-01T05:15:29;6.70;99.90
43089;DHT22;28709;52.030;5.652;2023-02-01T05:17:56;6.70;99.90
43089;DHT22;28709;52.030;5.652;2023-02-01T05:20:21;6.70;99.90
43089;DHT22;28709;52.030;5.652;2023-02-01T05:22:47;6.70;99.90
43089;DHT22;28709;52.030;5.652;2023-02-01T05:25:13;6.70;99.90
43089;DHT22;28709;52.030;5.652;2023-02-01T05:27:39;6.70;99.90
43089;DHT22;28709;52.030;5.652;2023-02-01T05:30:06;6.80;99.90
43089;DHT22;28709;52.030;5.652;2023-02-01T05:32:32;6.80;99.90
43089;DHT22;28709;52.030;5.652;2023-02-01T05:34:57;6.80;99.90
43089;DHT22;28709;52.030;5.652;2023-02-01T05:37:23;6.80;99.90
43089;DHT22;28709;52.030;5.652;2023-02-01T05:39:49;6.80;99.90
43089;DHT22;28709;52.030;5.652;2023-02-01T05:42:14;6.80;99.90
43089;DHT22;28709;52.030;5.652;2023-02-01T05:44:40;6.80;99.90
43089;DHT22;28709;52.030;5.652;2023-02-01T05:47:06;6.80;99.90
43089;DHT22;28709;52.030;5.652;2023-02-01T05:49:31;6.80;99.90
43089;DHT22;28709;52.030;5.652;2023-02-01T05:51:57;6.80;99.90
43089;DHT22;28709;52.030;5.652;2023-02-01T05:54:23;6.80;99.90
43089;DHT22;28709;52.030;5.652;2023-02-01T05:56:48;6.80;99.90
43089;DHT22;28709;52.030;5.652;2023-02-01T05:59:14;6.80;99.90
43089;DHT22;28709;52.030;5.652;2023-02-01T06:01:39;6.80;99.90
43089;DHT22;28709;52.030;5.652;2023-02-01T06:04:05;6.80;99.90
43089;DHT22;28709;52.030;5.652;2023-02-01T06:06:31;6.80;99.90
43089;DHT22;28709;52.030;5.652;2023-02-01T06:08:57;6.80;99.90
43089;DHT22;28709;52.030;5.652;2023-02-01T06:11:22;6.80;99.90
43089;DHT22;28709;52.030;5.652;2023-02-01T06:13:48;6.80;99.90
43089;DHT22;28709;52.030;5.652;2023-02-01T06:16:14;6.80;99.90
43089;DHT22;28709;52.030;5.652;2023-02-01T06:18:41;6.80;99.90
43089;DHT22;28709;52.030;5.652;2023-02-01T06:21:07;6.80;99.90
43089;DHT22;28709;52.030;5.652;2023-02-01T06:23:33;6.80;99.90
43089;DHT22;28709;52.030;5.652;2023-02-01T06:26:04;6.80;99.90
43089;DHT22;28709;52.030;5.652;2023-02-01T06:28:31;6.80;99.90
43089;DHT22;28709;52.030;5.652;2023-02-01T06:30:57;6.80;99.90
43089;DHT22;28709;52.030;5.652;2023-02-01T06:33:24;6.80;99.90
43089;DHT22;28709;52.030;5.652;2023-02-01T06:35:57;6.80;99.90
43089;DHT22;28709;52.030;5.652;2023-02-01T06:38:24;6.80;99.90
43089;DHT22;28709;52.030;5.652;2023-02-01T06:40:54;6.80;99.90
43089;DHT22;28709;52.030;5.652;2023-02-01T06:43:21;6.80;99.90
43089;DHT22;28709;52.030;5.652;2023-02-01T06:45:46;6.80;99.90
43089;DHT22;28709;52.030;5.652;2023-02-01T06:48:12;6.80;99.90
43089;DHT22;28709;52.030;5.652;2023-02-01T06:50:38;6.80;99.90
43089;DHT22;28709;52.030;5.652;2023-02-01T06:53:03;6.80;99.90
43089;DHT22;28709;52.030;5.652;2023-02-01T06:55:29;6.70;99.90
43089;DHT22;28709;52.030;5.652;2023-02-01T06:57:56;6.70;99.90
43089;DHT22;28709;52.030;5.652;2023-02-01T07:00:22;6.70;99.90
43089;DHT22;28709;52.030;5.652;2023-02-01T07:02:48;6.70;99.90
43089;DHT22;28709;52.030;5.652;2023-02-01T07:05:15;6.60;99.90
43089;DHT22;28709;52.030;5.652;2023-02-01T07:07:40;6.60;99.90
43089;DHT22;28709;52.030;5.652;2023-02-01T07:10:06;6.50;99.90
43089;DHT22;28709;52.030;5.652;2023-02-01T07:12:32;6.50;99.90
43089;DHT22;28709;52.030;5.652;2023-02-01T07:14:58;6.50;99.90
43089;DHT22;28709;52.030;5.652;2023-02-01T07:17:23;6.40;99.90
43089;DHT22;28709;52.030;5.652;2023-02-01T07:19:49;6.50;99.90
43089;DHT22;28709;52.030;5.652;2023-02-01T07:22:18;6.40;99.90
43089;DHT22;28709;52.030;5.652;2023-02-01T07:24:43;6.40;99.90
43089;DHT22;28709;52.030;5.652;2023-02-01T07:27:09;6.40;99.90
43089;DHT22;28709;52.030;5.652;2023-02-01T07:29:34;6.40;99.90
43089;DHT22;28709;52.030;5.652;2023-02-01T07:32:00;6.40;99.90
43089;DHT22;28709;52.030;5.652;2023-02-01T07:34:28;6.40;99.90
43089;DHT22;28709;52.030;5.652;2023-02-01T07:36:53;6.40;99.90
43089;DHT22;28709;52.030;5.652;2023-02-01T07:39:19;6.50;99.90
43089;DHT22;28709;52.030;5.652;2023-02-01T07:41:45;6.50;99.90
43089;DHT22;28709;52.030;5.652;2023-02-01T07:44:11;6.50;99.90
43089;DHT22;28709;52.030;5.652;2023-02-01T07:46:37;6.50;99.90
43089;DHT22;28709;52.030;5.652;2023-02-01T07:49:04;6.50;99.90
43089;DHT22;28709;52.030;5.652;2023-02-01T07:51:30;6.50;99.90
43089;DHT22;28709;52.030;5.652;2023-02-01T07:53:56;6.50;99.90
43089;DHT22;28709;52.030;5.652;2023-02-01T07:56:21;6.50;99.90
43089;DHT22;28709;52.030;5.652;2023-02-01T07:58:52;6.50;99.90
43089;DHT22;28709;52.030;5.652;2023-02-01T08:01:20;6.50;99.90
43089;DHT22;28709;52.030;5.652;2023-02-01T08:03:48;6.50;99.90
43089;DHT22;28709;52.030;5.652;2023-02-01T08:06:14;6.50;99.90
43089;DHT22;28709;52.030;5.652;2023-02-01T08:08:40;6.50;99.90
43089;DHT22;28709;52.030;5.652;2023-02-01T08:11:06;6.60;99.90
43089;DHT22;28709;52.030;5.652;2023-02-01T08:13:34;6.60;99.90
43089;DHT22;28709;52.030;5.652;2023-02-01T08:16:02;6.60;99.90
43089;DHT22;28709;52.030;5.652;2023-02-01T08:18:28;6.60;99.90
43089;DHT22;28709;52.030;5.652;2023-02-01T08:20:54;6.60;99.90
43089;DHT22;28709;52.030;5.652;2023-02-01T08:23:20;6.70;99.90
43089;DHT22;28709;52.030;5.652;2023-02-01T08:25:46;6.60;99.90
43089;DHT22;28709;52.030;5.652;2023-02-01T08:28:12;6.70;99.90
43089;DHT22;28709;52.030;5.652;2023-02-01T08:30:38;6.70;99.90
43089;DHT22;28709;52.030;5.652;2023-02-01T08:33:05;6.70;99.90
43089;DHT22;28709;52.030;5.652;2023-02-01T08:35:38;6.80;99.90
43089;DHT22;28709;52.030;5.652;2023-02-01T08:38:04;6.80;99.90
43089;DHT22;28709;52.030;5.652;2023-02-01T08:40:31;6.90;99.90
43089;DHT22;28709;52.030;5.652;2023-02-01T08:42:57;7.00;99.90
43089;DHT22;28709;52.030;5.652;2023-02-01T08:45:25;7.10;99.90
43089;DHT22;28709;52.030;5.652;2023-02-01T08:47:52;7.30;99.90
43089;DHT22;28709;52.030;5.652;2023-02-01T08:50:19;7.40;99.90
43089;DHT22;28709;52.030;5.652;2023-02-01T08:52:45;7.50;99.90
43089;DHT22;28709;52.030;5.652;2023-02-01T08:55:12;7.60;99.90
43089;DHT22;28709;52.030;5.652;2023-02-01T08:57:38;7.60;99.90
43089;DHT22;28709;52.030;5.652;2023-02-01T09:00:06;7.60;99.90
43089;DHT22;28709;52.030;5.652;2023-02-01T09:02:32;7.70;99.90
43089;DHT22;28709;52.030;5.652;2023-02-01T09:04:58;7.80;99.90
43089;DHT22;28709;52.030;5.652;2023-02-01T09:07:23;7.90;99.90
43089;DHT22;28709;52.030;5.652;2023-02-01T09:09:49;7.90;99.90
43089;DHT22;28709;52.030;5.652;2023-02-01T09:12:15;8.00;99.90
43089;DHT22;28709;52.030;5.652;2023-02-01T09:14:41;7.90;99.90
43089;DHT22;28709;52.030;5.652;2023-02-01T09:17:07;7.80;99.90
43089;DHT22;28709;52.030;5.652;2023-02-01T09:19:32;7.80;99.90
43089;DHT22;28709;52.030;5.652;2023-02-01T09:21:58;7.80;99.90
43089;DHT22;28709;52.030;5.652;2023-02-01T09:24:24;7.90;99.90
43089;DHT22;28709;52.030;5.652;2023-02-01T09:26:50;8.20;99.90
43089;DHT22;28709;52.030;5.652;2023-02-01T09:29:16;8.70;99.90
43089;DHT22;28709;52.030;5.652;2023-02-01T09:31:42;8.90;99.90
43089;DHT22;28709;52.030;5.652;2023-02-01T09:34:08;8.90;99.90
43089;DHT22;28709;52.030;5.652;2023-02-01T09:36:34;9.00;99.90
43089;DHT22;28709;52.030;5.652;2023-02-01T09:39:00;9.00;99.90
43089;DHT22;28709;52.030;5.652;2023-02-01T09:41:35;9.00;99.90
43089;DHT22;28709;52.030;5.652;2023-02-01T09:46:55;9.00;99.90
43089;DHT22;28709;52.030;5.652;2023-02-01T09:49:38;8.80;99.90
43089;DHT22;28709;52.030;5.652;2023-02-01T09:52:13;8.60;99.90
43089;DHT22;28709;52.030;5.652;2023-02-01T09:54:48;8.50;99.90
43089;DHT22;28709;52.030;5.652;2023-02-01T09:57:24;8.40;99.90
43089;DHT22;28709;52.030;5.652;2023-02-01T10:00:00;8.30;99.90
43089;DHT22;28709;52.030;5.652;2023-02-01T10:02:28;8.20;99.90
43089;DHT22;28709;52.030;5.652;2023-02-01T10:04:57;8.10;99.90
43089;DHT22;28709;52.030;5.652;2023-02-01T10:08:01;8.10;99.90
43089;DHT22;28709;52.030;5.652;2023-02-01T10:18:34;8.00;99.90
43089;DHT22;28709;52.030;5.652;2023-02-01T10:25:08;7.90;99.90
43089;DHT22;28709;52.030;5.652;2023-02-01T10:27:12;7.80;99.90
43089;DHT22;28709;52.030;5.652;2023-02-01T10:29:44;7.80;99.90
43089;DHT22;28709;52.030;5.652;2023-02-01T10:32:17;7.70;99.90
43089;DHT22;28709;52.030;5.652;2023-02-01T10:34:48;7.70;99.90
43089;DHT22;28709;52.030;5.652;2023-02-01T10:37:33;7.60;99.90
43089;DHT22;28709;52.030;5.652;2023-02-01T10:42:47;7.40;99.90
43089;DHT22;28709;52.030;5.652;2023-02-01T10:45:20;7.20;99.90
43089;DHT22;28709;52.030;5.652;2023-02-01T10:47:49;7.10;99.90
43089;DHT22;28709;52.030;5.652;2023-02-01T10:50:37;7.00;99.90
43089;DHT22;28709;52.030;5.652;2023-02-01T10:53:17;6.90;99.90
43089;DHT22;28709;52.030;5.652;2023-02-01T10:55:48;6.90;99.90
43089;DHT22;28709;52.030;5.652;2023-02-01T11:00:54;7.00;99.90
43089;DHT22;28709;52.030;5.652;2023-02-01T11:08:54;7.20;99.90
43089;DHT22;28709;52.030;5.652;2023-02-01T11:11:21;7.20;99.90
43089;DHT22;28709;52.030;5.652;2023-02-01T11:13:58;7.20;99.90
43089;DHT22;28709;52.030;5.652;2023-02-01T11:16:34;7.30;99.90
43089;DHT22;28709;52.030;5.652;2023-02-01T11:19:00;7.30;99.90
43089;DHT22;28709;52.030;5.652;2023-02-01T11:21:27;7.30;99.90
43089;DHT22;28709;52.030;5.652;2023-02-01T11:23:53;7.40;99.90
43089;DHT22;28709;52.030;5.652;2023-02-01T11:26:26;7.40;99.90
43089;DHT22;28709;52.030;5.652;2023-02-01T11:29:04;7.50;99.90
43089;DHT22;28709;52.030;5.652;2023-02-01T11:31:34;7.50;99.90
43089;DHT22;28709;52.030;5.652;2023-02-01T11:34:15;7.50;99.90
43089;DHT22;28709;52.030;5.652;2023-02-01T11:36:41;7.50;99.90
43089;DHT22;28709;52.030;5.652;2023-02-01T11:42:12;7.50;99.90
43089;DHT22;28709;52.030;5.652;2023-02-01T11:44:40;7.50;99.90
43089;DHT22;28709;52.030;5.652;2023-02-01T11:47:22;7.60;99.90
43089;DHT22;28709;52.030;5.652;2023-02-01T11:49:53;7.60;99.90
43089;DHT22;28709;52.030;5.652;2023-02-01T11:58:05;7.80;99.90
43089;DHT22;28709;52.030;5.652;2023-02-01T12:00:36;7.80;99.90
43089;DHT22;28709;52.030;5.652;2023-02-01T12:06:09;7.90;99.90
43089;DHT22;28709;52.030;5.652;2023-02-01T12:09:05;7.90;99.90
43089;DHT22;28709;52.030;5.652;2023-02-01T12:18:03;8.20;99.90
43089;DHT22;28709;52.030;5.652;2023-02-01T12:20:23;8.30;99.90
43089;DHT22;28709;52.030;5.652;2023-02-01T12:23:33;8.40;99.90
43089;DHT22;28709;52.030;5.652;2023-02-01T12:28:37;8.50;99.90
43089;DHT22;28709;52.030;5.652;2023-02-01T12:31:12;8.60;99.90
43089;DHT22;28709;52.030;5.652;2023-02-01T12:34:10;8.60;99.90
43089;DHT22;28709;52.030;5.652;2023-02-01T12:39:39;8.60;99.90
43089;DHT22;28709;52.030;5.652;2023-02-01T12:44:50;8.60;99.90
43089;DHT22;28709;52.030;5.652;2023-02-01T12:47:39;8.60;99.90
43089;DHT22;28709;52.030;5.652;2023-02-01T12:52:56;8.60;99.90
43089;DHT22;28709;52.030;5.652;2023-02-01T12:55:41;8.60;99.90
43089;DHT22;28709;52.030;5.652;2023-02-01T12:58:24;8.60;99.90
43089;DHT22;28709;52.030;5.652;2023-02-01T13:01:00;8.60;99.90
43089;DHT22;28709;52.030;5.652;2023-02-01T13:06:21;8.50;99.90
43089;DHT22;28709;52.030;5.652;2023-02-01T13:11:39;8.40;99.90
43089;DHT22;28709;52.030;5.652;2023-02-01T13:16:56;8.40;99.90
43089;DHT22;28709;52.030;5.652;2023-02-01T13:24:59;8.50;99.90
43089;DHT22;28709;52.030;5.652;2023-02-01T13:27:28;8.50;99.90
43089;DHT22;28709;52.030;5.652;2023-02-01T13:30:12;8.50;99.90
43089;DHT22;28709;52.030;5.652;2023-02-01T13:43:51;8.40;99.90
43089;DHT22;28709;52.030;5.652;2023-02-01T13:46:19;8.40;99.90
43089;DHT22;28709;52.030;5.652;2023-02-01T13:49:02;8.40;99.90
43089;DHT22;28709;52.030;5.652;2023-02-01T13:51:40;8.40;99.90
43089;DHT22;28709;52.030;5.652;2023-02-01T13:54:06;8.40;99.90
43089;DHT22;28709;52.030;5.652;2023-02-01T13:56:41;8.40;99.90
43089;DHT22;28709;52.030;5.652;2023-02-01T13:59:36;8.40;99.90
43089;DHT22;28709;52.030;5.652;2023-02-01T14:05:59;8.50;99.90
43089;DHT22;28709;52.030;5.652;2023-02-01T14:10:59;8.50;99.90
43089;DHT22;28709;52.030;5.652;2023-02-01T14:13:35;8.50;99.90
43089;DHT22;28709;52.030;5.652;2023-02-01T14:26:21;8.70;99.90
43089;DHT22;28709;52.030;5.652;2023-02-01T14:32:04;8.80;99.90
43089;DHT22;28709;52.030;5.652;2023-02-01T14:37:10;8.70;99.90
43089;DHT22;28709;52.030;5.652;2023-02-01T14:47:55;8.60;99.90
43089;DHT22;28709;52.030;5.652;2023-02-01T14:50:41;8.60;99.90
43089;DHT22;28709;52.030;5.652;2023-02-01T15:01:23;8.60;99.90
43089;DHT22;28709;52.030;5.652;2023-02-01T15:06:36;8.50;99.90
43089;DHT22;28709;52.030;5.652;2023-02-01T15:14:41;8.50;99.90
43089;DHT22;28709;52.030;5.652;2023-02-01T15:17:25;8.50;99.90
43089;DHT22;28709;52.030;5.652;2023-02-01T15:19:59;8.40;99.90
43089;DHT22;28709;52.030;5.652;2023-02-01T15:22:27;8.40;99.90
43089;DHT22;28709;52.030;5.652;2023-02-01T15:24:57;8.30;99.90
43089;DHT22;28709;52.030;5.652;2023-02-01T15:27:24;8.30;99.90
43089;DHT22;28709;52.030;5.652;2023-02-01T15:29:50;8.30;99.90
43089;DHT22;28709;52.030;5.652;2023-02-01T15:32:30;8.30;99.90
43089;DHT22;28709;52.030;5.652;2023-02-01T15:34:59;8.30;99.90
43089;DHT22;28709;52.030;5.652;2023-02-01T15:37:26;8.30;99.90
43089;DHT22;28709;52.030;5.652;2023-02-01T15:42:57;8.30;99.90
43089;DHT22;28709;52.030;5.652;2023-02-01T15:45:29;8.40;99.90
43089;DHT22;28709;52.030;5.652;2023-02-01T15:47:57;8.40;99.90
43089;DHT22;28709;52.030;5.652;2023-02-01T15:50:23;8.40;99.90
43089;DHT22;28709;52.030;5.652;2023-02-01T15:52:53;8.40;99.90
43089;DHT22;28709;52.030;5.652;2023-02-01T15:55:22;8.40;99.90
43089;DHT22;28709;52.030;5.652;2023-02-01T15:57:49;8.40;99.90
43089;DHT22;28709;52.030;5.652;2023-02-01T16:00:26;8.50;99.90
43089;DHT22;28709;52.030;5.652;2023-02-01T16:02:58;8.40;99.90
43089;DHT22;28709;52.030;5.652;2023-02-01T16:05:38;8.40;99.90
43089;DHT22;28709;52.030;5.652;2023-02-01T16:08:21;8.50;99.90
43089;DHT22;28709;52.030;5.652;2023-02-01T16:10:49;8.50;99.90
43089;DHT22;28709;52.030;5.652;2023-02-01T16:13:17;8.50;99.90
43089;DHT22;28709;52.030;5.652;2023-02-01T16:15:42;8.50;99.90
43089;DHT22;28709;52.030;5.652;2023-02-01T16:18:09;8.50;99.90
43089;DHT22;28709;52.030;5.652;2023-02-01T16:20:37;8.50;99.90
43089;DHT22;28709;52.030;5.652;2023-02-01T16:23:03;8.50;99.90
43089;DHT22;28709;52.030;5.652;2023-02-01T16:25:29;8.50;99.90
43089;DHT22;28709;52.030;5.652;2023-02-01T16:27:55;8.50;99.90
43089;DHT22;28709;52.030;5.652;2023-02-01T16:30:21;8.50;99.90
43089;DHT22;28709;52.030;5.652;2023-02-01T16:32:55;8.50;99.90
43089;DHT22;28709;52.030;5.652;2023-02-01T16:35:24;8.50;99.90
43089;DHT22;28709;52.030;5.652;2023-02-01T16:37:50;8.60;99.90
43089;DHT22;28709;52.030;5.652;2023-02-01T16:40:17;8.60;99.90
43089;DHT22;28709;52.030;5.652;2023-02-01T16:42:43;8.60;99.90
43089;DHT22;28709;52.030;5.652;2023-02-01T16:45:09;8.60;99.90
43089;DHT22;28709;52.030;5.652;2023-02-01T16:47:37;8.60;99.90
43089;DHT22;28709;52.030;5.652;2023-02-01T16:50:03;8.60;99.90
43089;DHT22;28709;52.030;5.652;2023-02-01T16:52:29;8.60;99.90
43089;DHT22;28709;52.030;5.652;2023-02-01T16:54:55;8.60;99.90
43089;DHT22;28709;52.030;5.652;2023-02-01T16:57:21;8.60;99.90
43089;DHT22;28709;52.030;5.652;2023-02-01T16:59:51;8.60;99.90
43089;DHT22;28709;52.030;5.652;2023-02-01T17:02:18;8.60;99.90
43089;DHT22;28709;52.030;5.652;2023-02-01T17:04:44;8.60;99.90
43089;DHT22;28709;52.030;5.652;2023-02-01T17:07:15;8.60;99.90
43089;DHT22;28709;52.030;5.652;2023-02-01T17:09:41;8.60;99.90
43089;DHT22;28709;52.030;5.652;2023-02-01T17:12:09;8.60;99.90
43089;DHT22;28709;52.030;5.652;2023-02-01T17:14:40;8.60;99.90
43089;DHT22;28709;52.030;5.652;2023-02-01T17:17:08;8.70;99.90
43089;DHT22;28709;52.030;5.652;2023-02-01T17:19:34;8.70;99.90
43089;DHT22;28709;52.030;5.652;2023-02-01T17:22:00;8.70;99.90
43089;DHT22;28709;52.030;5.652;2023-02-01T17:24:29;8.70;99.90
43089;DHT22;28709;52.030;5.652;2023-02-01T17:26:56;8.70;99.90
43089;DHT22;28709;52.030;5.652;2023-02-01T17:29:23;8.70;99.90
43089;DHT22;28709;52.030;5.652;2023-02-01T17:31:51;8.70;99.90
43089;DHT22;28709;52.030;5.652;2023-02-01T17:34:17;8.70;99.90
43089;DHT22;28709;52.030;5.652;2023-02-01T17:36:44;8.80;99.90
43089;DHT22;28709;52.030;5.652;2023-02-01T17:39:11;8.70;99.90
43089;DHT22;28709;52.030;5.652;2023-02-01T17:41:57;8.80;99.90
43089;DHT22;28709;52.030;5.652;2023-02-01T17:44:22;8.70;99.90
43089;DHT22;28709;52.030;5.652;2023-02-01T17:46:48;8.80;99.90
43089;DHT22;28709;52.030;5.652;2023-02-01T17:49:13;8.80;99.90
43089;DHT22;28709;52.030;5.652;2023-02-01T17:51:39;8.80;99.90
43089;DHT22;28709;52.030;5.652;2023-02-01T17:54:11;8.90;99.90
43089;DHT22;28709;52.030;5.652;2023-02-01T17:56:38;8.90;99.90
43089;DHT22;28709;52.030;5.652;2023-02-01T17:59:04;8.90;99.90
43089;DHT22;28709;52.030;5.652;2023-02-01T18:01:29;8.90;99.90
43089;DHT22;28709;52.030;5.652;2023-02-01T18:03:55;8.90;99.90
43089;DHT22;28709;52.030;5.652;2023-02-01T18:06:23;8.90;99.90
43089;DHT22;28709;52.030;5.652;2023-02-01T18:08:48;8.90;99.90
43089;DHT22;28709;52.030;5.652;2023-02-01T18:11:19;8.90;99.90
43089;DHT22;28709;52.030;5.652;2023-02-01T18:13:46;8.90;99.90
43089;DHT22;28709;52.030;5.652;2023-02-01T18:16:18;8.80;99.90
43089;DHT22;28709;52.030;5.652;2023-02-01T18:18:44;8.80;99.90
43089;DHT22;28709;52.030;5.652;2023-02-01T18:21:10;8.80;99.90
43089;DHT22;28709;52.030;5.652;2023-02-01T18:23:36;8.80;99.90
43089;DHT22;28709;52.030;5.652;2023-02-01T18:26:01;8.80;99.90
43089;DHT22;28709;52.030;5.652;2023-02-01T18:28:28;8.70;99.90
43089;DHT22;28709;52.030;5.652;2023-02-01T18:30:54;8.50;99.90
43089;DHT22;28709;52.030;5.652;2023-02-01T18:33:21;8.30;99.90
43089;DHT22;28709;52.030;5.652;2023-02-01T18:35:47;8.10;99.90
43089;DHT22;28709;52.030;5.652;2023-02-01T18:38:13;7.50;99.90
43089;DHT22;28709;52.030;5.652;2023-02-01T18:40:53;6.80;99.90
43089;DHT22;28709;52.030;5.652;2023-02-01T18:43:19;6.30;99.90
43089;DHT22;28709;52.030;5.652;2023-02-01T18:45:46;5.90;99.90